createdAt,value
2018-09-18T03:01:06.959Z,0.00
2018-09-18T03:02:07.497Z,0.00
2018-09-18T03:03:07.395Z,0.00
2018-09-18T03:04:07.321Z,0.00
2018-09-18T03:05:07.778Z,0.00
2018-09-18T03:06:08.065Z,0.00
2018-09-18T03:07:08.442Z,0.00
2018-09-18T03:08:07.860Z,0.00
2018-09-18T03:09:08.039Z,0.00
2018-09-18T03:10:08.782Z,0.00
2018-09-18T03:11:08.740Z,0.00
2018-09-18T03:12:08.014Z,0.00
2018-09-18T03:13:09.296Z,0.00
2018-09-18T03:14:07.577Z,0.00
2018-09-18T03:15:06.837Z,0.00
2018-09-18T03:16:06.987Z,0.00
2018-09-18T03:17:07.202Z,0.00
2018-09-18T03:18:07.256Z,0.00
2018-09-18T03:19:07.622Z,0.00
2018-09-18T03:20:07.607Z,0.00
2018-09-18T03:21:07.975Z,0.00
2018-09-18T03:22:07.984Z,0.00
2018-09-18T03:23:08.277Z,0.00
2018-09-18T03:24:08.411Z,0.00
2018-09-18T03:25:08.506Z,0.00
2018-09-18T03:26:08.933Z,0.00
2018-09-18T03:27:08.986Z,0.00
2018-09-18T03:28:09.098Z,0.00
2018-09-18T03:29:09.331Z,0.00
2018-09-18T03:30:09.457Z,0.00
2018-09-18T03:31:09.596Z,0.00
2018-09-18T03:32:09.711Z,0.00
2018-09-18T03:33:09.908Z,0.00
2018-09-18T03:34:09.972Z,0.00
2018-09-18T03:35:10.778Z,0.00
2018-09-18T03:36:10.440Z,0.00
2018-09-18T03:37:10.564Z,0.00
2018-09-18T03:38:10.820Z,0.00
2018-09-18T03:39:10.920Z,0.00
2018-09-18T03:40:11.081Z,0.00
2018-09-18T03:41:11.251Z,0.00
2018-09-18T03:42:11.351Z,0.00
2018-09-18T03:43:11.527Z,0.00
2018-09-18T03:44:11.829Z,0.00
2018-09-18T03:45:12.050Z,0.00
2018-09-18T03:46:12.238Z,0.00
2018-09-18T03:47:12.310Z,0.00
2018-09-18T03:48:12.418Z,0.00
2018-09-18T03:49:12.593Z,0.00
2018-09-18T03:50:12.697Z,0.00
2018-09-18T03:51:12.935Z,0.00
2018-09-18T03:52:13.172Z,0.00
2018-09-18T03:53:13.389Z,0.00
2018-09-18T03:54:13.465Z,0.00
2018-09-18T03:55:13.624Z,0.00
2018-09-18T03:56:13.965Z,0.00
2018-09-18T03:57:14.061Z,0.00
2018-09-18T03:58:14.288Z,0.00
2018-09-18T03:59:14.345Z,0.00
2018-09-18T04:00:14.510Z,0.00
2018-09-18T04:01:14.657Z,0.00
2018-09-18T04:02:14.832Z,0.00
2018-09-18T04:03:15.088Z,0.00
2018-09-18T04:04:15.350Z,0.00
2018-09-18T04:05:15.407Z,0.00
2018-09-18T04:06:15.680Z,0.00
2018-09-18T04:07:15.741Z,0.00
2018-09-18T04:08:15.893Z,0.00
2018-09-18T04:09:16.147Z,0.00
2018-09-18T04:10:16.188Z,0.00
2018-09-18T04:11:16.472Z,0.00
2018-09-18T04:12:16.632Z,0.00
2018-09-18T04:13:16.777Z,0.00
2018-09-18T04:14:16.916Z,0.00
2018-09-18T04:15:17.139Z,0.00
2018-09-18T04:16:17.308Z,0.00
2018-09-18T04:17:17.666Z,0.00
2018-09-18T04:18:17.722Z,0.00
2018-09-18T04:19:17.873Z,0.00
2018-09-18T04:20:18.211Z,0.00
2018-09-18T04:21:18.330Z,0.00
2018-09-18T04:22:18.479Z,0.00
2018-09-18T04:23:18.629Z,0.00
2018-09-18T04:24:18.805Z,0.00
2018-09-18T04:25:18.950Z,0.00
2018-09-18T04:26:19.011Z,0.00
2018-09-18T04:27:19.265Z,0.00
2018-09-18T04:28:19.541Z,0.00
2018-09-18T04:29:19.671Z,0.00
2018-09-18T04:30:19.811Z,0.00
2018-09-18T04:31:20.112Z,0.00
2018-09-18T04:32:20.115Z,0.00
2018-09-18T04:33:20.348Z,0.00
2018-09-18T04:34:20.534Z,4.00
2018-09-18T04:35:20.784Z,4.00
2018-09-18T04:36:20.798Z,4.00
2018-09-18T04:37:21.024Z,4.00
2018-09-18T04:38:21.176Z,8.00
2018-09-18T04:39:22.130Z,8.00
2018-09-18T04:40:21.602Z,8.00
2018-09-18T04:41:21.729Z,12.00
2018-09-18T04:42:21.989Z,12.00
2018-09-18T04:43:22.041Z,16.00
2018-09-18T04:44:22.330Z,16.00
2018-09-18T04:45:22.477Z,20.00
2018-09-18T04:46:22.609Z,24.00
2018-09-18T04:47:22.989Z,28.00
2018-09-18T04:48:23.021Z,32.00
2018-09-18T04:49:23.113Z,40.00
2018-09-18T04:50:23.202Z,48.00
2018-09-18T04:51:23.401Z,52.00
2018-09-18T04:52:23.477Z,60.00
2018-09-18T04:53:23.692Z,68.00
2018-09-18T04:54:23.870Z,76.00
2018-09-18T04:55:24.089Z,88.00
2018-09-18T04:56:25.191Z,96.00
2018-09-18T04:57:24.500Z,108.00
2018-09-18T04:58:24.583Z,120.00
2018-09-18T04:59:24.802Z,132.00
2018-09-18T05:00:24.924Z,148.00
2018-09-18T05:01:25.225Z,164.00
2018-09-18T05:02:25.312Z,180.00
2018-09-18T05:03:25.679Z,196.00
2018-09-18T05:04:25.611Z,220.00
2018-09-18T05:05:25.969Z,236.00
2018-09-18T05:06:25.912Z,260.00
2018-09-18T05:07:26.125Z,280.00
2018-09-18T05:08:26.306Z,304.00
2018-09-18T05:09:26.505Z,332.00
2018-09-18T05:10:27.093Z,356.00
2018-09-18T05:11:26.820Z,388.00
2018-09-18T05:12:26.969Z,420.00
2018-09-18T05:13:27.117Z,452.00
2018-09-18T05:14:27.254Z,484.00
2018-09-18T05:15:27.412Z,520.00
2018-09-18T05:16:27.599Z,556.00
2018-09-18T05:17:27.713Z,596.00
2018-09-18T05:18:27.888Z,632.00
2018-09-18T05:19:28.173Z,672.00
2018-09-18T05:20:29.092Z,716.00
2018-09-18T05:21:28.469Z,756.00
2018-09-18T05:22:28.819Z,796.00
2018-09-18T05:23:28.886Z,840.00
2018-09-18T05:24:28.978Z,880.00
2018-09-18T05:25:29.312Z,924.00
2018-09-18T05:26:29.599Z,964.00
2018-09-18T05:27:29.603Z,1008.00
2018-09-18T05:28:30.118Z,1052.00
2018-09-18T05:29:30.178Z,1096.00
2018-09-18T05:30:30.262Z,1140.00
2018-09-18T05:31:30.520Z,1180.00
2018-09-18T05:32:31.007Z,1216.00
2018-09-18T05:35:52.941Z,1324.00
2018-09-18T05:36:53.319Z,1360.00
2018-09-18T05:37:53.994Z,1392.00
2018-09-18T05:38:53.282Z,1424.00
2018-09-18T05:39:53.924Z,1456.00
2018-09-18T05:40:54.211Z,1484.00
2018-09-18T05:41:53.777Z,1508.00
2018-09-18T05:42:53.134Z,1544.00
2018-09-18T05:43:51.640Z,1564.00
2018-09-18T05:44:51.891Z,1596.00
2018-09-18T05:45:52.045Z,1620.00
2018-09-18T05:46:52.148Z,1648.00
2018-09-18T05:47:52.365Z,1672.00
2018-09-18T05:48:52.744Z,1696.00
2018-09-18T05:49:53.100Z,1720.00
2018-09-18T05:50:53.110Z,1744.00
2018-09-18T05:52:03.860Z,1768.00
2018-09-18T05:52:55.396Z,1792.00
2018-09-18T05:53:56.357Z,1816.00
2018-09-18T05:54:56.160Z,1836.00
2018-09-18T05:56:56.740Z,1884.00
2018-09-18T05:57:54.185Z,1904.00
2018-09-18T05:58:54.378Z,1924.00
2018-09-18T05:59:54.516Z,1948.00
2018-09-18T06:00:58.304Z,1968.00
2018-09-18T06:01:54.951Z,1988.00
2018-09-18T06:02:55.565Z,2008.00
2018-09-18T06:03:57.477Z,2028.00
2018-09-18T06:04:58.471Z,2052.00
2018-09-18T06:06:58.926Z,2100.00
2018-09-18T06:07:55.921Z,2124.00
2018-09-18T06:08:56.055Z,2152.00
2018-09-18T06:09:56.064Z,2180.00
2018-09-18T06:10:56.290Z,2212.00
2018-09-18T06:11:56.469Z,2248.00
2018-09-18T06:12:56.658Z,2284.00
2018-09-18T06:13:56.795Z,2320.00
2018-09-18T06:14:57.003Z,2360.00
2018-09-18T06:15:57.197Z,2400.00
2018-09-18T06:16:57.388Z,2436.00
2018-09-18T06:17:57.474Z,2472.00
2018-09-18T06:18:57.471Z,2508.00
2018-09-18T06:19:57.798Z,2536.00
2018-09-18T06:20:57.849Z,2564.00
2018-09-18T06:21:57.960Z,2592.00
2018-09-18T06:22:58.157Z,2628.00
2018-09-18T06:23:58.381Z,2652.00
2018-09-18T06:24:58.627Z,2684.00
2018-09-18T06:25:58.790Z,2720.00
2018-09-18T06:26:59.059Z,2752.00
2018-09-18T06:27:59.202Z,2788.00
2018-09-18T06:28:59.345Z,2820.00
2018-09-18T06:29:59.560Z,2848.00
2018-09-18T06:30:59.680Z,2876.00
2018-09-18T06:31:59.897Z,2900.00
2018-09-18T06:33:00.074Z,2928.00
2018-09-18T06:34:00.076Z,2960.00
2018-09-18T06:35:00.292Z,2988.00
2018-09-18T06:36:00.415Z,3020.00
2018-09-18T06:37:00.663Z,3048.00
2018-09-18T06:38:00.842Z,3068.00
2018-09-18T06:39:01.123Z,3084.00
2018-09-18T06:40:01.271Z,3104.00
2018-09-18T06:41:01.640Z,3132.00
2018-09-18T06:42:01.632Z,3160.00
2018-09-18T06:43:02.026Z,3188.00
2018-09-18T06:44:02.286Z,3220.00
2018-09-18T06:45:02.723Z,3244.00
2018-09-18T06:47:45.746Z,3324.00
2018-09-18T06:48:45.771Z,3356.00
2018-09-18T06:49:46.252Z,3392.00
2018-09-18T06:50:48.094Z,3432.00
2018-09-18T06:51:48.306Z,3476.00
2018-09-18T06:53:16.187Z,3516.00
2018-09-18T06:55:01.133Z,3588.00
2018-09-18T06:55:48.349Z,3616.00
2018-09-18T06:59:50.312Z,3720.00
2018-09-18T07:00:47.258Z,3744.00
2018-09-18T07:04:32.061Z,3844.00
2018-09-18T07:05:34.348Z,3868.00
2018-09-18T07:08:31.109Z,3928.00
2018-09-18T07:09:32.591Z,3948.00
2018-09-18T07:10:31.020Z,3964.00
2018-09-18T07:12:39.959Z,4008.00
2018-09-18T07:13:54.097Z,4024.00
2018-09-18T07:14:36.640Z,4040.00
2018-09-18T07:15:39.422Z,4056.00
2018-09-18T07:17:32.031Z,4104.00
2018-09-18T07:18:32.371Z,4128.00
2018-09-18T07:20:30.753Z,4172.00
2018-09-18T07:21:31.723Z,4188.00
2018-09-18T07:22:31.856Z,4208.00
2018-09-18T07:23:32.027Z,4228.00
2018-09-18T07:24:29.934Z,4252.00
2018-09-18T07:25:30.677Z,4276.00
2018-09-18T07:26:30.765Z,4304.00
2018-09-18T07:27:30.520Z,4324.00
2018-09-18T07:28:30.441Z,4352.00
2018-09-18T07:29:31.026Z,4372.00
2018-09-18T07:32:15.280Z,4412.00
2018-09-18T07:32:37.596Z,4424.00
2018-09-18T07:33:36.143Z,4436.00
2018-09-18T07:38:01.577Z,4540.00
2018-09-18T07:39:33.634Z,4560.00
2018-09-18T07:42:00.595Z,4608.00
2018-09-18T07:43:02.139Z,4620.00
2018-09-18T07:45:20.272Z,4664.00
2018-09-18T07:46:01.002Z,4692.00
2018-09-18T07:47:20.559Z,4724.00
2018-09-18T07:48:06.068Z,4752.00
2018-09-18T07:49:27.211Z,4780.00
2018-09-18T07:50:03.835Z,4792.00
2018-09-18T07:51:06.199Z,4824.00
2018-09-18T07:52:01.813Z,4852.00
2018-09-18T07:53:01.697Z,4872.00
2018-09-18T07:54:02.349Z,4888.00
2018-09-18T07:55:05.838Z,4904.00
2018-09-18T07:56:01.996Z,4924.00
2018-09-18T07:56:59.518Z,4944.00
2018-09-18T07:57:59.893Z,4964.00
2018-09-18T07:58:59.806Z,4980.00
2018-09-18T07:59:59.746Z,5004.00
2018-09-18T08:01:00.059Z,5024.00
2018-09-18T08:02:18.737Z,5048.00
2018-09-18T08:03:02.855Z,5076.00
2018-09-18T08:04:02.615Z,5096.00
2018-09-18T08:05:02.739Z,5124.00
2018-09-18T08:06:04.116Z,5144.00
2018-09-18T08:07:02.778Z,5168.00
2018-09-18T08:08:01.901Z,5192.00
2018-09-18T08:09:01.086Z,5212.00
2018-09-18T08:10:01.291Z,5236.00
2018-09-18T08:11:01.525Z,5260.00
2018-09-18T08:12:02.031Z,5284.00
2018-09-18T08:13:01.741Z,5300.00
2018-09-18T08:14:02.337Z,5320.00
2018-09-18T08:15:02.181Z,5344.00
2018-09-18T08:16:02.219Z,5364.00
2018-09-18T08:17:02.315Z,5392.00
2018-09-18T08:18:02.671Z,5416.00
2018-09-18T08:19:02.907Z,5436.00
2018-09-18T08:20:02.914Z,5464.00
2018-09-18T08:21:03.051Z,5484.00
2018-09-18T08:22:03.312Z,5500.00
2018-09-18T08:23:03.459Z,5540.00
2018-09-18T08:24:03.679Z,5548.00
2018-09-18T08:25:03.955Z,5572.00
2018-09-18T08:26:03.963Z,5592.00
2018-09-18T08:27:04.283Z,5604.00
2018-09-18T08:28:04.894Z,5628.00
2018-09-18T08:29:04.992Z,5660.00
2018-09-18T08:30:05.094Z,5692.00
2018-09-18T08:31:04.890Z,5724.00
2018-09-18T08:32:05.079Z,5744.00
2018-09-18T08:33:05.491Z,5772.00
2018-09-18T08:34:05.604Z,5792.00
2018-09-18T08:35:05.576Z,5820.00
2018-09-18T08:36:06.030Z,5852.00
2018-09-18T08:37:06.030Z,5888.00
2018-09-18T08:38:06.235Z,5920.00
2018-09-18T08:39:06.450Z,5960.00
2018-09-18T08:40:06.520Z,6000.00
2018-09-18T08:41:06.721Z,6032.00
2018-09-18T08:42:06.854Z,6052.00
2018-09-18T08:43:06.999Z,6076.00
2018-09-18T08:44:07.284Z,6092.00
2018-09-18T08:45:07.489Z,6108.00
2018-09-18T08:46:07.720Z,6116.00
2018-09-18T08:47:08.102Z,6128.00
2018-09-18T08:48:08.460Z,6140.00
2018-09-18T08:49:08.208Z,6156.00
2018-09-18T08:50:08.535Z,6172.00
2018-09-18T08:51:08.588Z,6184.00
2018-09-18T08:52:08.841Z,6196.00
2018-09-18T08:53:09.393Z,6228.00
2018-09-18T08:54:10.058Z,6228.00
2018-09-18T08:55:09.966Z,6240.00
2018-09-18T08:56:09.612Z,6288.00
2018-09-18T08:57:09.855Z,6316.00
2018-09-18T08:58:10.388Z,6360.00
2018-09-18T08:59:10.806Z,6396.00
2018-09-18T09:00:10.025Z,6408.00
2018-09-18T09:01:10.272Z,6444.00
2018-09-18T09:02:10.522Z,6496.00
2018-09-18T09:03:10.823Z,6540.00
2018-09-18T09:04:10.822Z,6596.00
2018-09-18T09:05:11.050Z,6660.00
2018-09-18T09:06:11.362Z,6724.00
2018-09-18T09:07:11.475Z,6808.00
2018-09-18T09:08:11.768Z,6920.00
2018-09-18T09:09:11.859Z,7096.00
2018-09-18T09:10:12.078Z,11204.00
2018-09-18T09:11:12.150Z,23488.00
2018-09-18T09:12:12.355Z,34240.00
2018-09-18T09:13:12.523Z,37504.00
2018-09-18T09:14:12.477Z,35168.00
2018-09-18T09:15:12.811Z,36768.00
2018-09-18T09:16:13.290Z,40800.00
2018-09-18T09:17:13.046Z,38464.00
2018-09-18T09:18:13.507Z,39488.00
2018-09-18T09:19:13.535Z,42848.00
2018-09-18T09:20:13.723Z,43296.00
2018-09-18T09:21:14.038Z,44320.00
2018-09-18T09:22:14.066Z,46272.00
2018-09-18T09:23:14.278Z,46688.00
2018-09-18T09:24:14.265Z,46432.00
2018-09-18T09:25:14.471Z,46752.00
2018-09-18T09:26:14.840Z,48992.00
2018-09-18T09:27:14.983Z,49088.00
2018-09-18T09:28:15.064Z,50848.00
2018-09-18T09:29:15.284Z,52864.00
2018-09-18T09:30:15.440Z,48160.00
2018-09-18T09:31:15.741Z,42336.00
2018-09-18T09:32:15.841Z,41952.00
2018-09-18T09:33:16.100Z,50240.00
2018-09-18T09:34:16.334Z,58432.00
2018-09-18T09:35:16.762Z,56992.00
2018-09-18T09:36:16.533Z,50752.00
2018-09-18T09:37:16.723Z,51904.00
2018-09-18T09:38:16.858Z,59264.00
2018-09-18T09:39:17.473Z,56864.00
2018-09-18T09:40:17.363Z,49568.00
2018-09-18T09:41:17.228Z,51296.00
2018-09-18T09:42:17.954Z,54720.00
2018-09-18T09:43:17.781Z,54880.00
2018-09-18T09:44:18.464Z,50816.00
2018-09-18T09:45:18.851Z,53440.00
2018-09-18T09:46:19.045Z,55776.00
2018-09-18T09:47:19.314Z,51008.00
2018-09-18T09:48:22.350Z,50784.00
2018-09-18T09:49:20.280Z,55520.00
2018-09-18T09:50:19.645Z,56704.00
2018-09-18T09:51:19.772Z,51552.00
2018-09-18T09:52:19.841Z,45120.00
2018-09-18T09:53:20.728Z,44128.00
2018-09-18T09:54:20.681Z,48576.00
2018-09-18T09:55:20.442Z,57824.00
2018-09-18T09:56:20.694Z,63776.00
2018-09-18T09:57:36.860Z,59904.00
2018-09-18T09:58:26.327Z,57664.00
2018-09-18T09:59:25.273Z,63584.00
2018-09-18T10:00:32.144Z,62272.00
2018-09-18T10:01:25.526Z,58816.00
2018-09-18T10:02:25.713Z,60032.00
2018-09-18T10:03:26.971Z,60992.00
2018-09-18T10:05:23.447Z,62432.00
2018-09-18T10:06:22.825Z,62560.00
2018-09-18T10:07:22.851Z,61856.00
2018-09-18T10:08:22.570Z,63936.00
2018-09-18T10:09:22.950Z,70208.00
2018-09-18T10:10:23.034Z,74272.00
2018-09-18T10:11:23.148Z,69856.00
2018-09-18T10:12:23.363Z,66432.00
2018-09-18T10:13:23.406Z,69472.00
2018-09-18T10:14:23.760Z,70464.00
2018-09-18T10:15:23.842Z,66080.00
2018-09-18T10:16:24.122Z,64032.00
2018-09-18T10:17:24.282Z,69056.00
2018-09-18T10:18:24.382Z,69248.00
2018-09-18T10:19:24.560Z,62784.00
2018-09-18T10:20:24.947Z,61376.00
2018-09-18T10:21:25.653Z,61728.00
2018-09-18T10:22:25.241Z,59072.00
2018-09-18T10:23:25.349Z,60768.00
2018-09-18T10:24:25.607Z,63744.00
2018-09-18T10:25:25.673Z,69792.00
2018-09-18T10:26:25.924Z,76064.00
2018-09-18T10:27:26.405Z,74208.00
2018-09-18T10:28:26.243Z,68480.00
2018-09-18T10:29:26.320Z,66784.00
2018-09-18T10:30:26.648Z,71520.00
2018-09-18T10:31:26.837Z,73216.00
2018-09-18T10:32:26.927Z,70336.00
2018-09-18T10:33:27.118Z,71936.00
2018-09-18T10:34:27.400Z,74112.00
2018-09-18T10:35:27.655Z,68992.00
2018-09-18T10:36:28.482Z,67232.00
2018-09-18T10:37:27.897Z,74848.00
2018-09-18T10:38:27.913Z,80576.00
2018-09-18T10:39:28.106Z,77856.00
2018-09-18T10:40:28.332Z,72320.00
2018-09-18T10:41:28.468Z,72320.00
2018-09-18T10:42:28.654Z,74560.00
2018-09-18T10:43:28.931Z,71200.00
2018-09-18T10:44:28.941Z,65760.00
2018-09-18T10:45:29.207Z,65056.00
2018-09-18T10:46:29.464Z,68608.00
2018-09-18T10:47:29.655Z,69856.00
2018-09-18T10:48:29.717Z,73664.00
2018-09-18T10:49:29.928Z,76704.00
2018-09-18T10:50:30.228Z,75296.00
2018-09-18T10:51:30.343Z,75072.00
2018-09-18T10:52:30.506Z,76704.00
2018-09-18T10:53:30.731Z,75104.00
2018-09-18T10:54:30.985Z,71072.00
2018-09-18T10:55:31.100Z,73792.00
2018-09-18T10:56:31.209Z,76384.00
2018-09-18T10:57:31.534Z,74240.00
2018-09-18T10:58:31.625Z,73824.00
2018-09-18T10:59:31.889Z,77120.00
2018-09-18T11:00:32.066Z,78752.00
2018-09-18T11:01:32.264Z,74048.00
2018-09-18T11:02:32.351Z,71936.00
2018-09-18T11:03:32.495Z,78464.00
2018-09-18T11:04:32.824Z,80416.00
2018-09-18T11:05:32.961Z,76576.00
2018-09-18T11:06:33.181Z,75392.00
2018-09-18T11:07:34.540Z,76608.00
2018-09-18T11:08:33.653Z,70304.00
2018-09-18T11:09:33.757Z,66432.00
2018-09-18T11:10:33.925Z,78144.00
2018-09-18T11:11:34.043Z,87424.00
2018-09-18T11:12:34.356Z,82144.00
2018-09-18T11:13:34.512Z,73728.00
2018-09-18T11:14:34.570Z,73600.00
2018-09-18T11:15:34.758Z,76512.00
2018-09-18T11:16:35.026Z,79840.00
2018-09-18T11:17:35.146Z,79968.00
2018-09-18T11:18:35.330Z,74176.00
2018-09-18T11:19:35.701Z,71264.00
2018-09-18T11:20:35.780Z,75456.00
2018-09-18T11:21:36.080Z,81312.00
2018-09-18T11:22:40.798Z,79520.00
2018-09-18T11:23:36.268Z,71968.00
2018-09-18T11:24:36.483Z,74272.00
2018-09-18T11:25:36.640Z,84064.00
2018-09-18T11:26:36.769Z,85184.00
2018-09-18T11:27:37.039Z,79040.00
2018-09-18T11:28:37.231Z,78976.00
2018-09-18T11:29:37.456Z,82176.00
2018-09-18T11:30:37.698Z,81472.00
2018-09-18T11:31:37.778Z,81760.00
2018-09-18T11:32:38.070Z,85696.00
2018-09-18T11:33:38.125Z,88224.00
2018-09-18T11:34:38.333Z,82656.00
2018-09-18T11:35:38.558Z,76128.00
2018-09-18T11:36:38.701Z,73504.00
2018-09-18T11:37:38.956Z,75712.00
2018-09-18T11:38:39.043Z,80096.00
2018-09-18T11:39:39.283Z,82304.00
2018-09-18T11:40:39.393Z,77536.00
2018-09-18T11:41:39.614Z,68768.00
2018-09-18T11:42:39.933Z,63584.00
2018-09-18T11:43:40.124Z,67264.00
2018-09-18T11:44:40.276Z,81056.00
2018-09-18T11:45:40.528Z,89024.00
2018-09-18T11:46:40.747Z,84512.00
2018-09-18T11:47:40.856Z,79872.00
2018-09-18T11:48:40.974Z,79712.00
2018-09-18T11:49:41.386Z,84736.00
2018-09-18T11:50:41.422Z,89728.00
2018-09-18T11:51:41.625Z,84512.00
2018-09-18T11:52:41.734Z,73504.00
2018-09-18T11:53:42.073Z,70560.00
2018-09-18T11:54:42.217Z,78848.00
2018-09-18T11:55:42.348Z,90208.00
2018-09-18T11:56:42.662Z,91136.00
2018-09-18T11:57:42.676Z,84512.00
2018-09-18T11:58:42.925Z,77088.00
2018-09-18T11:59:43.138Z,78752.00
2018-09-18T12:00:43.279Z,86560.00
2018-09-18T12:01:43.545Z,88064.00
2018-09-18T12:02:43.656Z,81312.00
2018-09-18T12:03:43.844Z,79520.00
2018-09-18T12:04:44.217Z,81792.00
2018-09-18T12:05:44.147Z,84384.00
2018-09-18T12:06:44.379Z,85504.00
2018-09-18T12:07:44.540Z,86336.00
2018-09-18T12:08:44.814Z,91552.00
2018-09-18T12:09:45.026Z,97920.00
2018-09-18T12:10:45.039Z,95200.00
2018-09-18T12:11:45.301Z,86208.00
2018-09-18T12:12:45.439Z,82592.00
2018-09-18T12:13:45.749Z,87072.00
2018-09-18T12:14:45.930Z,94304.00
2018-09-18T12:15:46.117Z,97024.00
2018-09-18T12:16:46.388Z,97440.00
2018-09-18T12:17:46.504Z,97952.00
2018-09-18T12:18:46.768Z,95520.00
2018-09-18T12:19:47.031Z,90368.00
2018-09-18T12:20:47.112Z,88416.00
2018-09-18T12:21:47.431Z,93888.00
2018-09-18T12:22:47.649Z,98048.00
2018-09-18T12:23:47.650Z,97152.00
2018-09-18T12:24:47.797Z,93056.00
2018-09-18T12:25:48.165Z,92800.00
2018-09-18T12:26:48.210Z,94016.00
2018-09-18T12:27:48.463Z,93888.00
2018-09-18T12:28:48.749Z,91648.00
2018-09-18T12:29:48.853Z,87232.00
2018-09-18T12:30:49.096Z,86176.00
2018-09-18T12:31:49.353Z,87392.00
2018-09-18T12:32:49.491Z,86624.00
2018-09-18T12:33:49.581Z,81248.00
2018-09-18T12:34:50.009Z,84352.00
2018-09-18T12:35:50.844Z,90432.00
2018-09-18T12:36:50.268Z,89440.00
2018-09-18T12:37:50.317Z,84096.00
2018-09-18T12:38:50.975Z,82272.00
2018-09-18T12:39:50.964Z,87456.00
2018-09-18T12:40:50.965Z,93280.00
2018-09-18T12:41:51.318Z,91744.00
2018-09-18T12:42:51.344Z,86336.00
2018-09-18T12:43:51.633Z,84128.00
2018-09-18T12:44:51.815Z,94496.00
2018-09-18T12:45:52.009Z,106464.00
2018-09-18T12:46:51.995Z,112864.00
2018-09-18T12:47:52.217Z,105152.00
2018-09-18T12:48:52.429Z,94016.00
2018-09-18T12:49:52.933Z,87968.00
2018-09-18T12:50:52.798Z,92736.00
2018-09-18T12:51:52.980Z,101632.00
2018-09-18T12:52:53.137Z,102816.00
2018-09-18T12:53:53.439Z,98368.00
2018-09-18T12:54:53.503Z,98592.00
2018-09-18T12:55:53.733Z,100384.00
2018-09-18T12:56:54.066Z,92640.00
2018-09-18T12:57:54.258Z,85056.00
2018-09-18T12:58:54.301Z,86656.00
2018-09-18T12:59:54.647Z,88736.00
2018-09-18T13:00:54.664Z,90784.00
2018-09-18T13:01:54.942Z,93024.00
2018-09-18T13:02:55.510Z,90432.00
2018-09-18T13:03:55.383Z,89024.00
2018-09-18T13:05:55.565Z,90112.00
2018-09-18T13:06:55.846Z,94560.00
2018-09-18T13:07:56.160Z,96896.00
2018-09-18T13:08:56.301Z,97216.00
2018-09-18T13:09:56.508Z,100160.00
2018-09-18T13:10:56.625Z,100288.00
2018-09-18T13:11:57.013Z,93984.00
2018-09-18T13:12:57.079Z,86272.00
2018-09-18T13:13:57.296Z,84704.00
2018-09-18T13:14:57.401Z,90240.00
2018-09-18T13:15:57.606Z,93920.00
2018-09-18T13:16:57.848Z,95552.00
2018-09-18T13:17:57.941Z,98144.00
2018-09-18T13:18:58.254Z,97984.00
2018-09-18T13:19:58.542Z,95328.00
2018-09-18T13:20:58.584Z,92096.00
2018-09-18T13:21:58.827Z,88288.00
2018-09-18T13:22:58.974Z,88800.00
2018-09-18T13:23:59.148Z,90720.00
2018-09-18T13:24:59.344Z,91808.00
2018-09-18T13:25:59.486Z,89344.00
2018-09-18T13:26:59.771Z,87968.00
2018-09-18T13:28:00.076Z,85920.00
2018-09-18T13:29:00.224Z,87168.00
2018-09-18T13:30:00.335Z,88192.00
2018-09-18T13:31:00.627Z,89504.00
2018-09-18T13:32:00.609Z,85440.00
2018-09-18T13:33:00.837Z,92480.00
2018-09-18T13:34:00.953Z,95424.00
2018-09-18T13:35:01.317Z,84512.00
2018-09-18T13:36:01.491Z,86272.00
2018-09-18T13:37:01.760Z,85184.00
2018-09-18T13:38:01.877Z,84576.00
2018-09-18T13:39:02.167Z,86880.00
2018-09-18T13:40:02.264Z,86944.00
2018-09-18T13:41:02.538Z,84288.00
2018-09-18T13:42:02.677Z,81248.00
2018-09-18T13:43:02.874Z,84384.00
2018-09-18T13:44:02.906Z,90560.00
2018-09-18T13:45:03.252Z,100736.00
2018-09-18T13:46:03.403Z,100224.00
2018-09-18T13:47:03.603Z,92704.00
2018-09-18T13:48:03.846Z,83200.00
2018-09-18T13:49:04.234Z,79424.00
2018-09-18T13:50:04.163Z,84576.00
2018-09-18T13:51:04.454Z,91808.00
2018-09-18T13:52:04.551Z,92128.00
2018-09-18T13:53:04.824Z,81120.00
2018-09-18T13:54:04.918Z,70080.00
2018-09-18T13:55:05.214Z,65280.00
2018-09-18T13:56:05.291Z,59936.00
2018-09-18T13:57:05.545Z,54208.00
2018-09-18T13:58:05.661Z,57184.00
2018-09-18T13:59:05.919Z,65888.00
2018-09-18T14:00:06.137Z,71488.00
2018-09-18T14:01:06.299Z,66112.00
2018-09-18T14:02:06.472Z,64832.00
2018-09-18T14:03:06.656Z,73184.00
2018-09-18T14:04:06.984Z,77696.00
2018-09-18T14:05:08.078Z,72832.00
2018-09-18T14:06:07.256Z,74176.00
2018-09-18T14:07:07.485Z,83712.00
2018-09-18T14:08:07.541Z,90848.00
2018-09-18T14:09:07.759Z,85088.00
2018-09-18T14:10:07.985Z,75712.00
2018-09-18T14:11:08.202Z,71072.00
2018-09-18T14:12:08.362Z,65408.00
2018-09-18T14:13:08.643Z,61376.00
2018-09-18T14:14:08.743Z,65056.00
2018-09-18T14:15:08.949Z,78304.00
2018-09-18T14:16:09.108Z,81152.00
2018-09-18T14:17:09.367Z,70848.00
2018-09-18T14:18:09.562Z,66784.00
2018-09-18T14:19:09.635Z,76704.00
2018-09-18T14:20:09.922Z,80160.00
2018-09-18T14:21:10.123Z,70560.00
2018-09-18T14:22:10.279Z,68224.00
2018-09-18T14:23:10.481Z,81024.00
2018-09-18T14:24:10.759Z,91104.00
2018-09-18T14:25:11.438Z,91840.00
2018-09-18T14:26:11.036Z,87360.00
2018-09-18T14:27:11.222Z,81120.00
2018-09-18T14:28:11.443Z,78336.00
2018-09-18T14:29:11.635Z,84384.00
2018-09-18T14:30:11.764Z,89632.00
2018-09-18T14:31:11.959Z,86656.00
2018-09-18T14:32:12.131Z,81728.00
2018-09-18T14:33:12.327Z,81600.00
2018-09-18T14:34:12.494Z,85760.00
2018-09-18T14:35:12.755Z,87328.00
2018-09-18T14:36:12.936Z,85024.00
2018-09-18T14:37:13.025Z,83744.00
2018-09-18T14:38:13.505Z,83136.00
2018-09-18T14:39:13.461Z,78496.00
2018-09-18T14:40:13.802Z,73120.00
2018-09-18T14:41:13.917Z,73216.00
2018-09-18T14:42:14.097Z,53664.00
2018-09-18T14:43:14.189Z,23520.00
2018-09-18T14:44:14.527Z,10800.00
2018-09-18T14:45:14.756Z,10032.00
2018-09-18T14:46:14.943Z,9148.00
2018-09-18T14:47:15.144Z,7428.00
2018-09-18T14:48:15.263Z,7428.00
2018-09-18T14:49:15.412Z,9440.00
2018-09-18T14:50:15.651Z,11924.00
2018-09-18T14:51:15.888Z,9532.00
2018-09-18T14:52:16.057Z,9780.00
2018-09-18T14:53:16.219Z,8296.00
2018-09-18T14:54:16.422Z,7580.00
2018-09-18T14:55:16.638Z,6680.00
2018-09-18T14:56:16.824Z,6696.00
2018-09-18T14:57:16.899Z,6604.00
2018-09-18T14:58:17.109Z,6564.00
2018-09-18T14:59:17.420Z,7016.00
2018-09-18T15:00:17.580Z,6692.00
2018-09-18T15:01:17.755Z,57824.00
2018-09-18T15:02:17.945Z,10044.00
2018-09-18T15:03:17.999Z,11636.00
2018-09-18T15:04:18.221Z,13280.00
2018-09-18T15:05:18.503Z,19040.00
2018-09-18T15:06:18.627Z,11200.00
2018-09-18T15:07:18.783Z,24800.00
2018-09-18T15:08:18.909Z,39616.00
2018-09-18T15:09:19.162Z,49856.00
2018-09-18T15:10:19.349Z,61728.00
2018-09-18T15:11:19.494Z,60032.00
2018-09-18T15:12:19.678Z,40768.00
2018-09-18T15:13:19.771Z,21376.00
2018-09-18T15:14:20.047Z,14908.00
2018-09-18T15:15:20.195Z,31232.00
2018-09-18T15:16:20.361Z,52128.00
2018-09-18T15:17:20.573Z,51744.00
2018-09-18T15:18:20.643Z,56000.00
2018-09-18T15:19:20.963Z,56800.00
2018-09-18T15:20:21.181Z,25536.00
2018-09-18T15:21:21.330Z,5448.00
2018-09-18T15:22:21.491Z,5364.00
2018-09-18T15:23:21.681Z,5316.00
2018-09-18T15:24:21.877Z,5296.00
2018-09-18T15:25:22.020Z,5304.00
2018-09-18T15:26:22.225Z,5316.00
2018-09-18T15:27:22.438Z,5288.00
2018-09-18T15:28:22.546Z,5264.00
2018-09-18T15:29:22.703Z,5260.00
2018-09-18T15:30:22.939Z,5224.00
2018-09-18T15:31:23.071Z,5232.00
2018-09-18T15:32:23.287Z,6436.00
2018-09-18T15:33:23.506Z,6408.00
2018-09-18T15:34:23.544Z,5436.00
2018-09-18T15:35:23.814Z,5592.00